Time;durP1;ratioP1;P1;durP2;ratioP2;P2;SDS_P1;SDS_P2;PMS_P1;PMS_P2;Temp;Humidity;BMP_temperature;BMP_pressure;BME280_temperature;BME280_humidity;BME280_pressure;Samples;Min_cycle;Max_cycle;Signal;HPM_P1;HPM_P2
2024/01/18 00:00:18;;;;;;;0.00;0.00;;;;;;;;;;4959738;28;20405;-91
2024/01/18 00:02:43;;;;;;;0.00;0.00;;;;;;;;;;4974882;28;20035;-90
2024/01/18 00:05:24;;;;;;;0.00;0.00;;;;;;;;;;4982789;28;20038;-91
2024/01/18 00:07:49;;;;;;;0.00;0.00;;;;;;;;;;4943562;28;20030;-91
2024/01/18 00:10:15;;;;;;;0.00;0.00;;;;;;;;;;4976565;28;20026;-91
2024/01/18 00:12:42;;;;;;;0.00;0.00;;;;;;;;;;4959329;28;20058;-90
2024/01/18 00:15:08;;;;;;;0.00;0.00;;;;;;;;;;4991470;28;20034;-91
2024/01/18 00:17:34;;;;;;;0.00;0.00;;;;;;;;;;4977100;28;20384;-90
2024/01/18 00:20:00;;;;;;;0.00;0.00;;;;;;;;;;4978389;28;20031;-90
2024/01/18 00:22:25;;;;;;;0.00;0.00;;;;;;;;;;4978507;28;20044;-91
2024/01/18 00:24:51;;;;;;;0.00;0.00;;;;;;;;;;4977854;28;20432;-92
2024/01/18 00:27:16;;;;;;;0.00;0.00;;;;;;;;;;4976953;28;20026;-91
2024/01/18 00:29:45;;;;;;;0.00;0.00;;;;;;;;;;4956501;28;20365;-91
2024/01/18 00:32:14;;;;;;;0.00;0.00;;;;;;;;;;4993040;28;20045;-91
2024/01/18 00:34:39;;;;;;;0.00;0.00;;;;;;;;;;4978192;28;20026;-90
2024/01/18 00:37:05;;;;;;;0.00;0.00;;;;;;;;;;4982318;28;20045;-91
2024/01/18 00:39:31;;;;;;;0.00;0.00;;;;;;;;;;4982593;28;20368;-91
2024/01/18 00:41:57;;;;;;;0.00;0.00;;;;;;;;;;4984469;28;20414;-91
2024/01/18 00:44:23;;;;;;;0.00;0.00;;;;;;;;;;4974524;28;20034;-91
2024/01/18 00:46:48;;;;;;;0.00;0.00;;;;;;;;;;4974312;28;20038;-91
2024/01/18 00:49:14;;;;;;;0.00;0.00;;;;;;;;;;4958618;28;20133;-90
2024/01/18 00:51:39;;;;;;;0.00;0.00;;;;;;;;;;4974873;28;20065;-91
2024/01/18 00:54:05;;;;;;;0.00;0.00;;;;;;;;;;4974204;28;20031;-91
2024/01/18 00:56:30;;;;;;;0.00;0.00;;;;;;;;;;4959455;28;20588;-91
2024/01/18 00:58:58;;;;;;;0.00;0.00;;;;;;;;;;4958183;28;20030;-91
2024/01/18 01:01:24;;;;;;;0.00;0.00;;;;;;;;;;4974791;28;20514;-90
2024/01/18 01:03:51;;;;;;;0.00;0.00;;;;;;;;;;4992438;28;20034;-90
2024/01/18 01:06:19;;;;;;;0.00;0.00;;;;;;;;;;4974275;28;20033;-90
2024/01/18 01:08:48;;;;;;;0.00;0.00;;;;;;;;;;4994351;28;20030;-91
2024/01/18 01:11:14;;;;;;;0.00;0.00;;;;;;;;;;4977689;28;20033;-91
2024/01/18 01:13:40;;;;;;;0.00;0.00;;;;;;;;;;4992515;28;20038;-91
2024/01/18 01:16:09;;;;;;;0.00;0.00;;;;;;;;;;4977174;28;20038;-91
2024/01/18 01:18:35;;;;;;;0.00;0.00;;;;;;;;;;4992474;28;20435;-90
2024/01/18 01:21:01;;;;;;;0.00;0.00;;;;;;;;;;4975094;28;20027;-90
2024/01/18 01:23:29;;;;;;;0.00;0.00;;;;;;;;;;4993157;28;20026;-91
2024/01/18 01:25:55;;;;;;;0.00;0.00;;;;;;;;;;4993416;28;20529;-90
2024/01/18 01:28:21;;;;;;;0.00;0.00;;;;;;;;;;4960418;28;20033;-90
2024/01/18 01:30:47;;;;;;;0.00;0.00;;;;;;;;;;4976610;28;20026;-90
2024/01/18 01:33:13;;;;;;;0.00;0.00;;;;;;;;;;4961604;28;20155;-91
2024/01/18 01:35:39;;;;;;;0.00;0.00;;;;;;;;;;4977003;28;20058;-91
2024/01/18 01:38:07;;;;;;;0.00;0.00;;;;;;;;;;4977205;28;20038;-91
2024/01/18 01:40:33;;;;;;;0.00;0.00;;;;;;;;;;4976973;28;20053;-89
2024/01/18 01:43:09;;;;;;;0.00;0.00;;;;;;;;;;4977387;28;20034;-91
2024/01/18 01:45:37;;;;;;;0.00;0.00;;;;;;;;;;4977081;28;20436;-91
2024/01/18 01:48:04;;;;;;;0.00;0.00;;;;;;;;;;4961815;28;20344;-91
2024/01/18 01:50:32;;;;;;;0.00;0.00;;;;;;;;;;4976813;28;20057;-91
2024/01/18 01:52:57;;;;;;;0.00;0.00;;;;;;;;;;4961777;28;20034;-91
2024/01/18 01:55:23;;;;;;;0.00;0.00;;;;;;;;;;4961215;28;20034;-90
2024/01/18 01:57:49;;;;;;;0.00;0.00;;;;;;;;;;4960401;28;20129;-91
2024/01/18 02:00:23;;;;;;;0.00;0.00;;;;;;;;;;4976984;28;20410;-92
2024/01/18 02:02:51;;;;;;;0.00;0.00;;;;;;;;;;4964088;28;20050;-91
2024/01/18 02:05:38;;;;;;;0.00;0.00;;;;;;;;;;4942223;28;20113;-91
2024/01/18 02:08:09;;;;;;;0.00;0.00;;;;;;;;;;4960766;28;20043;-91
2024/01/18 02:10:44;;;;;;;0.00;0.00;;;;;;;;;;4956446;28;20400;-91
2024/01/18 02:13:16;;;;;;;0.00;0.00;;;;;;;;;;4940814;28;20061;-91
2024/01/18 02:15:59;;;;;;;0.00;0.00;;;;;;;;;;4941136;28;20097;-92
2024/01/18 02:18:31;;;;;;;0.00;0.00;;;;;;;;;;4976851;28;20031;-92
2024/01/18 02:20:59;;;;;;;0.00;0.00;;;;;;;;;;4965855;28;20028;-91
2024/01/18 02:23:45;;;;;;;0.00;0.00;;;;;;;;;;4996025;28;20412;-91
2024/01/18 02:26:11;;;;;;;0.00;0.00;;;;;;;;;;5012197;28;20124;-90
2024/01/18 02:28:36;;;;;;;0.00;0.00;;;;;;;;;;5005150;28;20122;-90
2024/01/18 02:31:04;;;;;;;0.00;0.00;;;;;;;;;;4992512;28;20069;-90
2024/01/18 02:33:32;;;;;;;0.00;0.00;;;;;;;;;;4960566;28;20076;-92
2024/01/18 02:35:58;;;;;;;0.00;0.00;;;;;;;;;;4976787;28;20035;-91
2024/01/18 02:38:23;;;;;;;0.00;0.00;;;;;;;;;;4992699;28;20438;-90
2024/01/18 02:40:49;;;;;;;0.00;0.00;;;;;;;;;;5005346;28;20054;-91
2024/01/18 02:43:15;;;;;;;0.00;0.00;;;;;;;;;;5015407;28;20351;-90
2024/01/18 02:45:41;;;;;;;0.00;0.00;;;;;;;;;;4983015;28;20083;-91
2024/01/18 02:48:06;;;;;;;0.00;0.00;;;;;;;;;;5001581;28;20036;-90
2024/01/18 02:50:32;;;;;;;0.00;0.00;;;;;;;;;;4987541;28;20422;-91
2024/01/18 02:52:57;;;;;;;0.00;0.00;;;;;;;;;;5003195;28;20108;-90
2024/01/18 02:55:23;;;;;;;0.00;0.00;;;;;;;;;;4992947;28;20100;-91
2024/01/18 02:57:53;;;;;;;0.00;0.00;;;;;;;;;;5019954;28;20454;-91
2024/01/18 03:00:39;;;;;;;0.00;0.00;;;;;;;;;;5003285;28;20033;-91
2024/01/18 03:03:05;;;;;;;0.00;0.00;;;;;;;;;;5019195;28;20033;-91
2024/01/18 03:05:36;;;;;;;0.00;0.00;;;;;;;;;;5002302;28;20021;-90
2024/01/18 03:08:04;;;;;;;0.00;0.00;;;;;;;;;;5003693;28;20026;-89
2024/01/18 03:10:33;;;;;;;0.00;0.00;;;;;;;;;;4986827;28;20029;-90
2024/01/18 03:13:05;;;;;;;0.00;0.00;;;;;;;;;;5002844;28;20029;-89
2024/01/18 03:16:06;;;;;;;0.00;0.00;;;;;;;;;;4986042;28;20426;-89
2024/01/18 03:18:49;;;;;;;0.00;0.00;;;;;;;;;;4997977;28;20190;-90
2024/01/18 03:21:14;;;;;;;0.00;0.00;;;;;;;;;;5019160;28;20029;-91
2024/01/18 03:23:40;;;;;;;0.00;0.00;;;;;;;;;;5017263;28;20461;-90
2024/01/18 03:26:08;;;;;;;0.00;0.00;;;;;;;;;;5001910;28;20060;-90
2024/01/18 03:28:34;;;;;;;0.00;0.00;;;;;;;;;;4982356;28;20117;-90
2024/01/18 03:31:00;;;;;;;0.00;0.00;;;;;;;;;;4966686;28;20124;-90
2024/01/18 03:33:25;;;;;;;0.00;0.00;;;;;;;;;;5003594;28;20518;-90
2024/01/18 03:35:51;;;;;;;0.00;0.00;;;;;;;;;;4998260;28;20414;-90
2024/01/18 03:38:18;;;;;;;0.00;0.00;;;;;;;;;;4982629;28;20041;-90
2024/01/18 03:40:44;;;;;;;0.00;0.00;;;;;;;;;;4998471;28;20050;-90
2024/01/18 03:43:12;;;;;;;0.00;0.00;;;;;;;;;;5016708;28;20079;-89
2024/01/18 03:45:37;;;;;;;0.00;0.00;;;;;;;;;;4985097;28;20027;-89
2024/01/18 03:48:13;;;;;;;0.00;0.00;;;;;;;;;;5002240;28;20022;-90
2024/01/18 03:50:38;;;;;;;0.00;0.00;;;;;;;;;;5002342;28;20124;-90
2024/01/18 03:53:12;;;;;;;0.00;0.00;;;;;;;;;;4986689;28;20124;-91
2024/01/18 03:55:38;;;;;;;0.00;0.00;;;;;;;;;;5002353;28;20060;-89
2024/01/18 03:58:04;;;;;;;0.00;0.00;;;;;;;;;;5017206;28;20030;-90
2024/01/18 04:00:29;;;;;;;0.00;0.00;;;;;;;;;;4985379;28;20034;-90
2024/01/18 04:02:58;;;;;;;0.00;0.00;;;;;;;;;;4984907;28;20042;-90
2024/01/18 04:05:23;;;;;;;0.00;0.00;;;;;;;;;;4985467;28;20095;-87
2024/01/18 04:07:49;;;;;;;0.00;0.00;;;;;;;;;;5017557;28;20033;-89
2024/01/18 04:10:14;;;;;;;0.00;0.00;;;;;;;;;;5017203;28;20453;-89
2024/01/18 04:12:42;;;;;;;0.00;0.00;;;;;;;;;;5001033;28;20029;-90
2024/01/18 04:15:09;;;;;;;0.00;0.00;;;;;;;;;;5002151;28;20385;-89
2024/01/18 04:17:34;;;;;;;0.00;0.00;;;;;;;;;;4985379;28;20275;-89
2024/01/18 04:20:06;;;;;;;0.00;0.00;;;;;;;;;;5001239;28;20104;-89
2024/01/18 04:22:37;;;;;;;0.00;0.00;;;;;;;;;;4984306;28;20033;-89
2024/01/18 04:25:03;;;;;;;0.00;0.00;;;;;;;;;;5001083;28;20025;-90
2024/01/18 04:27:29;;;;;;;0.00;0.00;;;;;;;;;;5001512;28;20151;-89
2024/01/18 04:29:54;;;;;;;0.00;0.00;;;;;;;;;;5016772;28;20130;-89
2024/01/18 04:32:20;;;;;;;0.00;0.00;;;;;;;;;;4984265;28;20029;-90
2024/01/18 04:34:46;;;;;;;0.00;0.00;;;;;;;;;;5012549;28;20032;-89
2024/01/18 04:37:11;;;;;;;0.00;0.00;;;;;;;;;;5054004;28;20412;-89
2024/01/18 04:39:37;;;;;;;0.00;0.00;;;;;;;;;;5003527;28;20094;-89
2024/01/18 04:42:02;;;;;;;0.00;0.00;;;;;;;;;;5010015;28;20036;-89
2024/01/18 04:44:31;;;;;;;0.00;0.00;;;;;;;;;;4984115;28;20026;-89
2024/01/18 04:46:56;;;;;;;0.00;0.00;;;;;;;;;;5017623;28;20438;-90
2024/01/18 04:49:54;;;;;;;0.00;0.00;;;;;;;;;;5005808;28;20028;-89
2024/01/18 04:52:23;;;;;;;0.00;0.00;;;;;;;;;;4966788;28;20095;-89
2024/01/18 04:54:56;;;;;;;0.00;0.00;;;;;;;;;;5021121;28;20418;-89
2024/01/18 04:57:22;;;;;;;0.00;0.00;;;;;;;;;;5004522;28;20129;-89
2024/01/18 04:59:49;;;;;;;0.00;0.00;;;;;;;;;;5019987;28;20112;-90
2024/01/18 05:02:15;;;;;;;0.00;0.00;;;;;;;;;;5020573;28;20029;-86
2024/01/18 05:04:41;;;;;;;0.00;0.00;;;;;;;;;;5023166;28;20032;-88
2024/01/18 05:07:06;;;;;;;0.00;0.00;;;;;;;;;;5042407;28;20009;-88
2024/01/18 05:09:32;;;;;;;0.00;0.00;;;;;;;;;;5043027;28;20040;-88
2024/01/18 05:12:01;;;;;;;0.00;0.00;;;;;;;;;;5042386;28;20120;-88
2024/01/18 05:14:26;;;;;;;0.00;0.00;;;;;;;;;;4999896;28;20036;-89
2024/01/18 05:16:54;;;;;;;0.00;0.00;;;;;;;;;;5011248;28;20034;-88
2024/01/18 05:19:21;;;;;;;0.00;0.00;;;;;;;;;;4981729;28;20431;-89
2024/01/18 05:21:47;;;;;;;0.00;0.00;;;;;;;;;;4965130;28;20120;-88
2024/01/18 05:24:12;;;;;;;0.00;0.00;;;;;;;;;;4982280;28;20053;-89
2024/01/18 05:26:38;;;;;;;0.00;0.00;;;;;;;;;;5000291;28;20041;-88
2024/01/18 05:29:06;;;;;;;0.00;0.00;;;;;;;;;;5016197;28;20025;-88
2024/01/18 05:31:32;;;;;;;0.00;0.00;;;;;;;;;;4984263;28;20094;-87
2024/01/18 05:33:57;;;;;;;0.00;0.00;;;;;;;;;;5016454;28;20108;-89
2024/01/18 05:36:23;;;;;;;0.00;0.00;;;;;;;;;;4996623;28;20043;-77
2024/01/18 05:38:48;;;;;;;0.00;0.00;;;;;;;;;;5033058;28;20025;-76
2024/01/18 05:41:17;;;;;;;0.00;0.00;;;;;;;;;;5032559;28;20045;-83
2024/01/18 05:43:42;;;;;;;0.00;0.00;;;;;;;;;;5033972;28;20076;-89
2024/01/18 05:46:08;;;;;;;0.00;0.00;;;;;;;;;;5028970;28;20164;-90
2024/01/18 05:48:40;;;;;;;0.00;0.00;;;;;;;;;;5034010;28;20025;-88
2024/01/18 05:51:05;;;;;;;0.00;0.00;;;;;;;;;;4985810;28;20382;-88
2024/01/18 05:53:31;;;;;;;0.00;0.00;;;;;;;;;;4972464;28;20034;-88
2024/01/18 05:55:59;;;;;;;0.00;0.00;;;;;;;;;;4994451;28;20053;-89
2024/01/18 05:58:59;;;;;;;0.00;0.00;;;;;;;;;;4994996;28;20041;-88
2024/01/18 06:01:26;;;;;;;0.00;0.00;;;;;;;;;;5012457;28;20096;-85
2024/01/18 06:04:17;;;;;;;0.00;0.00;;;;;;;;;;5024528;28;20421;-88
2024/01/18 06:06:52;;;;;;;0.00;0.00;;;;;;;;;;5021255;28;20033;-84
2024/01/18 06:09:20;;;;;;;0.00;0.00;;;;;;;;;;4980616;28;20049;-87
2024/01/18 06:11:47;;;;;;;0.00;0.00;;;;;;;;;;4995827;28;20091;-86
2024/01/18 06:14:43;;;;;;;;;;;;;;;;;;;;;
2024/01/18 06:20:31;;;;;;;0.00;0.00;;;;;;;;;;5017512;28;20040;-88
2024/01/18 06:22:58;;;;;;;0.00;0.00;;;;;;;;;;4999581;28;20037;-85
2024/01/18 06:25:24;;;;;;;0.00;0.00;;;;;;;;;;5015057;28;20092;-85
2024/01/18 06:27:53;;;;;;;0.00;0.00;;;;;;;;;;5002100;28;20120;-86
2024/01/18 06:30:18;;;;;;;0.00;0.00;;;;;;;;;;5009813;28;20059;-86
2024/01/18 06:32:44;;;;;;;0.00;0.00;;;;;;;;;;4999233;28;20467;-78
2024/01/18 06:35:10;;;;;;;0.00;0.00;;;;;;;;;;5032004;28;20025;-78
2024/01/18 06:37:36;;;;;;;0.00;0.00;;;;;;;;;;5029305;28;20048;-79
2024/01/18 06:40:02;;;;;;;0.00;0.00;;;;;;;;;;5033283;28;20065;-76
2024/01/18 06:42:28;;;;;;;0.00;0.00;;;;;;;;;;5033294;28;20182;-78
2024/01/18 06:44:54;;;;;;;0.00;0.00;;;;;;;;;;5017039;28;20029;-75
2024/01/18 06:47:20;;;;;;;0.00;0.00;;;;;;;;;;5032117;28;20029;-77
2024/01/18 06:49:46;;;;;;;0.00;0.00;;;;;;;;;;5030774;28;20088;-77
2024/01/18 06:52:20;;;;;;;0.00;0.00;;;;;;;;;;5032779;28;20037;-76
2024/01/18 06:54:46;;;;;;;0.00;0.00;;;;;;;;;;5022376;28;20422;-78
2024/01/18 07:01:10;;;;;;;0.00;0.00;;;;;;;;;;5031432;28;20048;-83
2024/01/18 07:03:38;;;;;;;0.00;0.00;;;;;;;;;;5021298;28;20041;-83
2024/01/18 07:06:12;;;;;;;0.00;0.00;;;;;;;;;;5032226;28;20084;-87
2024/01/18 07:08:57;;;;;;;0.00;0.00;;;;;;;;;;4997423;28;20026;-86
2024/01/18 07:14:56;;;;;;;0.00;0.00;;;;;;;;;;4928135;29;20276;-81
2024/01/18 07:17:40;;;;;;;0.00;0.00;;;;;;;;;;5019532;28;20535;-86
2024/01/18 07:20:12;;;;;;;0.00;0.00;;;;;;;;;;4983517;28;20049;-91
2024/01/18 07:22:47;;;;;;;0.00;0.00;;;;;;;;;;4987057;28;20036;-84
2024/01/18 07:25:50;;;;;;;0.00;0.00;;;;;;;;;;5032278;28;20078;-86
2024/01/18 07:28:16;;;;;;;0.00;0.00;;;;;;;;;;5019172;28;20503;-85
2024/01/18 07:30:45;;;;;;;0.00;0.00;;;;;;;;;;5026759;28;20034;-89
2024/01/18 07:33:29;;;;;;;0.00;0.00;;;;;;;;;;4980117;28;20149;-83
2024/01/18 07:36:22;;;;;;;0.00;0.00;;;;;;;;;;4987175;28;20078;-86
2024/01/18 07:39:06;;;;;;;0.00;0.00;;;;;;;;;;4898766;29;20386;-84
2024/01/18 07:55:00;;;;;;;0.00;0.00;;;;;;;;;;4916933;29;20038;-84
2024/01/18 08:01:40;;;;;;;0.00;0.00;;;;;;;;;;4908717;29;20505;-84
2024/01/18 08:18:21;;;;;;;0.00;0.00;;;;;;;;;;4867986;29;20132;-90
2024/01/18 08:20:46;;;;;;;0.00;0.00;;;;;;;;;;4825468;29;20046;-88
2024/01/18 08:33:15;;;;;;;0.00;0.00;;;;;;;;;;4820496;29;20105;-84
2024/01/18 08:35:41;;;;;;;0.00;0.00;;;;;;;;;;4801235;29;20055;-85
2024/01/18 08:38:56;;;;;;;0.00;0.00;;;;;;;;;;4801849;29;20305;-85
2024/01/18 08:41:21;;;;;;;0.00;0.00;;;;;;;;;;4823241;29;20074;-86
2024/01/18 08:47:55;;;;;;;0.00;0.00;;;;;;;;;;4992297;28;20363;-85
2024/01/18 08:50:23;;;;;;;0.00;0.00;;;;;;;;;;4992231;28;20523;-86
2024/01/18 08:56:26;;;;;;;0.00;0.00;;;;;;;;;;4991460;28;20042;-85
2024/01/18 09:06:08;;;;;;;0.00;0.00;;;;;;;;;;4949233;29;20038;-86
2024/01/18 09:09:19;;;;;;;0.00;0.00;;;;;;;;;;4936618;29;20101;-87
2024/01/18 09:12:05;;;;;;;0.00;0.00;;;;;;;;;;4886131;29;20116;-86
2024/01/18 09:21:14;;;;;;;0.00;0.00;;;;;;;;;;4951805;29;20097;-87
2024/01/18 09:23:52;;;;;;;0.00;0.00;;;;;;;;;;4935070;29;20046;-89
2024/01/18 09:26:39;;;;;;;0.00;0.00;;;;;;;;;;4935673;29;20067;-85
2024/01/18 09:29:05;;;;;;;0.00;0.00;;;;;;;;;;4946776;28;20039;-82
2024/01/18 09:32:22;;;;;;;0.00;0.00;;;;;;;;;;4938976;29;20039;-83
2024/01/18 09:35:05;;;;;;;0.00;0.00;;;;;;;;;;4947912;28;20090;-83
2024/01/18 09:37:31;;;;;;;0.00;0.00;;;;;;;;;;5031036;28;20033;-85
2024/01/18 09:40:11;;;;;;;0.00;0.00;;;;;;;;;;4992368;28;20049;-84
2024/01/18 09:45:50;;;;;;;0.00;0.00;;;;;;;;;;4974670;28;20031;-88
2024/01/18 09:48:16;;;;;;;0.00;0.00;;;;;;;;;;4968784;28;20144;-93
2024/01/18 09:50:47;;;;;;;0.00;0.00;;;;;;;;;;4989865;28;20010;-92
2024/01/18 09:53:40;;;;;;;0.00;0.00;;;;;;;;;;4991020;28;20038;-92
2024/01/18 09:59:59;;;;;;;0.00;0.00;;;;;;;;;;5009456;28;20072;-89
2024/01/18 10:05:43;;;;;;;0.00;0.00;;;;;;;;;;5163749;22;20053;-89
2024/01/18 10:08:10;;;;;;;0.00;0.00;;;;;;;;;;4993869;28;20044;-90
2024/01/18 10:10:43;;;;;;;0.00;0.00;;;;;;;;;;4999087;28;20040;-88
2024/01/18 10:13:13;;;;;;;0.00;0.00;;;;;;;;;;5000839;28;20037;-81
2024/01/18 10:15:39;;;;;;;0.00;0.00;;;;;;;;;;5034128;28;20036;-83
2024/01/18 10:20:49;;;;;;;0.00;0.00;;;;;;;;;;5200826;22;20057;-88
2024/01/18 10:23:15;;;;;;;0.00;0.00;;;;;;;;;;5028118;28;20385;-88
2024/01/18 10:25:41;;;;;;;0.00;0.00;;;;;;;;;;5046745;28;20022;-81
2024/01/18 10:28:09;;;;;;;0.00;0.00;;;;;;;;;;5009214;28;20084;-83
2024/01/18 10:31:01;;;;;;;0.00;0.00;;;;;;;;;;4997151;28;20033;-82
2024/01/18 10:33:33;;;;;;;0.00;0.00;;;;;;;;;;5000002;28;20053;-84
2024/01/18 10:36:01;;;;;;;0.00;0.00;;;;;;;;;;5020826;28;20018;-83
2024/01/18 10:38:30;;;;;;;0.00;0.00;;;;;;;;;;5015415;28;20037;-85
2024/01/18 10:41:03;;;;;;;0.00;0.00;;;;;;;;;;5017735;28;20390;-82
2024/01/18 10:43:30;;;;;;;0.00;0.00;;;;;;;;;;4993975;28;20038;-80
2024/01/18 10:45:55;;;;;;;0.00;0.00;;;;;;;;;;4993294;28;20036;-82
2024/01/18 10:48:22;;;;;;;0.00;0.00;;;;;;;;;;4999135;28;20037;-82
2024/01/18 10:50:51;;;;;;;0.00;0.00;;;;;;;;;;5029544;28;20026;-84
2024/01/18 10:56:16;;;;;;;0.00;0.00;;;;;;;;;;5167965;22;20103;-84
2024/01/18 10:58:41;;;;;;;0.00;0.00;;;;;;;;;;4992244;28;20033;-83
2024/01/18 11:01:10;;;;;;;0.00;0.00;;;;;;;;;;5039768;22;20025;-84
2024/01/18 11:03:36;;;;;;;0.00;0.00;;;;;;;;;;4998184;28;20037;-83
2024/01/18 11:06:04;;;;;;;0.00;0.00;;;;;;;;;;5016343;28;20507;-83
2024/01/18 11:11:24;;;;;;;0.00;0.00;;;;;;;;;;5014154;28;20026;-83
2024/01/18 11:13:50;;;;;;;0.00;0.00;;;;;;;;;;5007140;28;20259;-82
2024/01/18 11:16:35;;;;;;;;;;;;;;;;;;;;;
2024/01/18 11:19:04;;;;;;;0.00;0.00;;;;;;;;;;5025546;28;20101;-83
2024/01/18 11:21:52;;;;;;;;;;;;;;;;;;;;;
2024/01/18 11:25:28;;;;;;;0.00;0.00;;;;;;;;;;5040647;28;20116;-82
2024/01/18 11:27:54;;;;;;;0.00;0.00;;;;;;;;;;4981990;28;20124;-82
2024/01/18 11:30:36;;;;;;;0.00;0.00;;;;;;;;;;5053461;28;20025;-84
2024/01/18 11:33:18;;;;;;;0.00;0.00;;;;;;;;;;5057260;28;20025;-82
2024/01/18 11:35:43;;;;;;;0.00;0.00;;;;;;;;;;5042060;28;20017;-82
2024/01/18 11:38:19;;;;;;;0.00;0.00;;;;;;;;;;5056629;28;20035;-83
2024/01/18 11:40:46;;;;;;;0.00;0.00;;;;;;;;;;5014698;28;20034;-82
2024/01/18 11:43:15;;;;;;;0.00;0.00;;;;;;;;;;4982568;28;20026;-83
2024/01/18 11:52:14;;;;;;;0.00;0.00;;;;;;;;;;4986244;28;20044;-83
2024/01/18 11:54:43;;;;;;;;;;;;;;;;;;5025682;28;20207;-85
2024/01/18 11:57:16;;;;;;;0.00;0.00;;;;;;;;;;4992086;28;19922;-79
2024/01/18 11:59:43;;;;;;;0.00;0.00;;;;;;;;;;4998436;28;20083;-79
2024/01/18 12:02:10;;;;;;;0.00;0.00;;;;;;;;;;5014429;28;20469;-80
2024/01/18 12:04:35;;;;;;;0.00;0.00;;;;;;;;;;5017625;28;20426;-80
2024/01/18 12:07:01;;;;;;;0.00;0.00;;;;;;;;;;5016151;28;20036;-78
2024/01/18 12:09:30;;;;;;;0.00;0.00;;;;;;;;;;5017584;28;20037;-79
2024/01/18 12:12:09;;;;;;;0.00;0.00;;;;;;;;;;5017751;28;20025;-81
2024/01/18 12:14:42;;;;;;;0.00;0.00;;;;;;;;;;5017265;28;20132;-77
2024/01/18 12:17:14;;;;;;;0.00;0.00;;;;;;;;;;5000134;28;20052;-79
2024/01/18 12:19:42;;;;;;;0.00;0.00;;;;;;;;;;5031863;28;20036;-79
2024/01/18 12:22:08;;;;;;;0.00;0.00;;;;;;;;;;5010364;28;20476;-79
2024/01/18 12:24:34;;;;;;;0.00;0.00;;;;;;;;;;5023346;28;20140;-78
2024/01/18 12:27:00;;;;;;;0.00;0.00;;;;;;;;;;5011598;28;20361;-80
2024/01/18 12:29:26;;;;;;;0.00;0.00;;;;;;;;;;4979733;28;20129;-77
2024/01/18 12:31:51;;;;;;;0.00;0.00;;;;;;;;;;4993478;28;20443;-77
2024/01/18 12:34:18;;;;;;;0.00;0.00;;;;;;;;;;5131958;23;20053;-79
2024/01/18 12:36:44;;;;;;;0.00;0.00;;;;;;;;;;4991819;28;20169;-79
2024/01/18 12:39:13;;;;;;;0.00;0.00;;;;;;;;;;5007103;28;20570;-80
2024/01/18 12:41:38;;;;;;;0.00;0.00;;;;;;;;;;5008853;28;20126;-80
2024/01/18 12:44:06;;;;;;;0.00;0.00;;;;;;;;;;4994873;28;20192;-81
2024/01/18 12:46:34;;;;;;;0.00;0.00;;;;;;;;;;4989908;28;20301;-82
2024/01/18 12:49:00;;;;;;;0.00;0.00;;;;;;;;;;4975085;28;20042;-82
2024/01/18 12:51:26;;;;;;;0.00;0.00;;;;;;;;;;4991278;28;20062;-82
2024/01/18 12:53:51;;;;;;;0.00;0.00;;;;;;;;;;4983023;28;20462;-82
2024/01/18 12:56:17;;;;;;;0.00;0.00;;;;;;;;;;5010582;28;20034;-82
2024/01/18 12:58:42;;;;;;;0.00;0.00;;;;;;;;;;5009250;28;20084;-80
2024/01/18 13:01:08;;;;;;;0.00;0.00;;;;;;;;;;4993380;28;20574;-82
2024/01/18 13:03:33;;;;;;;0.00;0.00;;;;;;;;;;4993666;28;20141;-82
2024/01/18 13:05:59;;;;;;;0.00;0.00;;;;;;;;;;5010282;28;20075;-81
2024/01/18 13:08:46;;;;;;;0.00;0.00;;;;;;;;;;5013459;28;20060;-81
2024/01/18 13:11:11;;;;;;;0.00;0.00;;;;;;;;;;5011893;28;20025;-81
2024/01/18 13:13:37;;;;;;;0.00;0.00;;;;;;;;;;5012591;28;20018;-82
2024/01/18 13:16:03;;;;;;;0.00;0.00;;;;;;;;;;5012951;28;20021;-82
2024/01/18 13:18:28;;;;;;;0.00;0.00;;;;;;;;;;4996909;28;20124;-82
2024/01/18 13:20:54;;;;;;;0.00;0.00;;;;;;;;;;5011892;28;20116;-81
2024/01/18 13:23:20;;;;;;;0.00;0.00;;;;;;;;;;5011948;28;20375;-81
2024/01/18 13:25:46;;;;;;;0.00;0.00;;;;;;;;;;5012578;28;20079;-81
2024/01/18 13:28:11;;;;;;;0.00;0.00;;;;;;;;;;4979015;28;20018;-82
2024/01/18 13:30:37;;;;;;;0.00;0.00;;;;;;;;;;5011901;28;20057;-82
2024/01/18 13:33:02;;;;;;;0.00;0.00;;;;;;;;;;5011246;28;20313;-82
2024/01/18 13:35:28;;;;;;;0.00;0.00;;;;;;;;;;5011260;28;20518;-82
2024/01/18 13:37:53;;;;;;;0.00;0.00;;;;;;;;;;5012275;28;20455;-83
2024/01/18 13:40:19;;;;;;;0.00;0.00;;;;;;;;;;5012775;28;20447;-81
2024/01/18 13:42:44;;;;;;;0.00;0.00;;;;;;;;;;4996484;28;20475;-81
2024/01/18 13:45:10;;;;;;;0.00;0.00;;;;;;;;;;5012997;28;20100;-82
2024/01/18 13:47:36;;;;;;;0.00;0.00;;;;;;;;;;5014074;28;20367;-82
2024/01/18 13:50:01;;;;;;;0.00;0.00;;;;;;;;;;5012431;28;20030;-82
2024/01/18 13:52:28;;;;;;;0.00;0.00;;;;;;;;;;5013952;28;20026;-82
2024/01/18 13:54:54;;;;;;;0.00;0.00;;;;;;;;;;5013869;28;20123;-82
2024/01/18 13:57:20;;;;;;;0.00;0.00;;;;;;;;;;5012560;28;20066;-81
2024/01/18 13:59:46;;;;;;;0.00;0.00;;;;;;;;;;4996100;28;20026;-81
2024/01/18 14:02:11;;;;;;;0.00;0.00;;;;;;;;;;4996088;28;20522;-81
2024/01/18 14:04:37;;;;;;;0.00;0.00;;;;;;;;;;5013402;28;20028;-81
2024/01/18 14:07:03;;;;;;;0.00;0.00;;;;;;;;;;4996207;28;20026;-81
2024/01/18 14:09:28;;;;;;;0.00;0.00;;;;;;;;;;4996598;28;20026;-82
2024/01/18 14:11:54;;;;;;;0.00;0.00;;;;;;;;;;5012477;28;20076;-82
2024/01/18 14:14:19;;;;;;;0.00;0.00;;;;;;;;;;4996174;28;20030;-81
2024/01/18 14:16:45;;;;;;;0.00;0.00;;;;;;;;;;5013539;28;20030;-81
2024/01/18 14:19:10;;;;;;;0.00;0.00;;;;;;;;;;4995862;28;20030;-81
2024/01/18 14:21:36;;;;;;;0.00;0.00;;;;;;;;;;5012475;28;20434;-81
2024/01/18 14:24:01;;;;;;;0.00;0.00;;;;;;;;;;4995989;28;20041;-81
2024/01/18 14:26:27;;;;;;;0.00;0.00;;;;;;;;;;4996094;28;20033;-82
2024/01/18 14:28:52;;;;;;;0.00;0.00;;;;;;;;;;5012258;28;20482;-81
2024/01/18 14:31:18;;;;;;;0.00;0.00;;;;;;;;;;4996347;28;20103;-81
2024/01/18 14:33:43;;;;;;;0.00;0.00;;;;;;;;;;4995532;28;20375;-82
2024/01/18 14:36:09;;;;;;;0.00;0.00;;;;;;;;;;5012235;28;20026;-81
2024/01/18 14:38:34;;;;;;;0.00;0.00;;;;;;;;;;5012395;28;20037;-81
2024/01/18 14:41:00;;;;;;;0.00;0.00;;;;;;;;;;5013369;28;20025;-81
2024/01/18 14:43:26;;;;;;;0.00;0.00;;;;;;;;;;5016116;28;20112;-81
2024/01/18 14:45:52;;;;;;;0.00;0.00;;;;;;;;;;5015971;28;20087;-81
2024/01/18 14:48:17;;;;;;;0.00;0.00;;;;;;;;;;4999660;28;20364;-82
2024/01/18 14:50:46;;;;;;;0.00;0.00;;;;;;;;;;5017554;28;20121;-81
2024/01/18 14:53:13;;;;;;;0.00;0.00;;;;;;;;;;5000337;28;20034;-82
2024/01/18 14:55:39;;;;;;;0.00;0.00;;;;;;;;;;5017013;28;20121;-82
2024/01/18 14:58:07;;;;;;;0.00;0.00;;;;;;;;;;5015672;28;20137;-81
2024/01/18 15:00:35;;;;;;;0.00;0.00;;;;;;;;;;5015790;28;20030;-81
2024/01/18 15:03:01;;;;;;;0.00;0.00;;;;;;;;;;4999394;28;20033;-82
2024/01/18 15:05:26;;;;;;;0.00;0.00;;;;;;;;;;4999323;28;20030;-81
2024/01/18 15:07:52;;;;;;;0.00;0.00;;;;;;;;;;4983301;28;20029;-81
2024/01/18 15:10:18;;;;;;;0.00;0.00;;;;;;;;;;5016818;28;20033;-81
2024/01/18 15:12:44;;;;;;;0.00;0.00;;;;;;;;;;4999553;28;20034;-81
2024/01/18 15:15:10;;;;;;;0.00;0.00;;;;;;;;;;4999026;28;20030;-80
2024/01/18 15:17:35;;;;;;;0.00;0.00;;;;;;;;;;5015512;28;20073;-80
2024/01/18 15:20:01;;;;;;;0.00;0.00;;;;;;;;;;5015388;28;20106;-80
2024/01/18 15:22:26;;;;;;;0.00;0.00;;;;;;;;;;5016486;28;20037;-81
2024/01/18 15:24:52;;;;;;;0.00;0.00;;;;;;;;;;5015476;28;20030;-81
2024/01/18 15:27:18;;;;;;;0.00;0.00;;;;;;;;;;5016540;28;20040;-81
2024/01/18 15:29:43;;;;;;;0.00;0.00;;;;;;;;;;5014942;28;20080;-82
2024/01/18 15:32:09;;;;;;;0.00;0.00;;;;;;;;;;5016330;28;20116;-81
2024/01/18 15:34:34;;;;;;;0.00;0.00;;;;;;;;;;5014940;28;20050;-82
2024/01/18 15:37:00;;;;;;;0.00;0.00;;;;;;;;;;4998664;28;20084;-81
2024/01/18 15:39:27;;;;;;;0.00;0.00;;;;;;;;;;5015217;28;20030;-82
2024/01/18 15:41:52;;;;;;;0.00;0.00;;;;;;;;;;5015012;28;20132;-82
2024/01/18 15:44:18;;;;;;;0.00;0.00;;;;;;;;;;5014893;28;20110;-82
2024/01/18 15:46:48;;;;;;;0.00;0.00;;;;;;;;;;5014852;28;20478;-82
2024/01/18 15:49:15;;;;;;;0.00;0.00;;;;;;;;;;5016142;28;20092;-82
2024/01/18 15:51:40;;;;;;;0.00;0.00;;;;;;;;;;5016095;28;20061;-82
2024/01/18 15:54:06;;;;;;;0.00;0.00;;;;;;;;;;4997682;28;20473;-82
2024/01/18 15:56:32;;;;;;;0.00;0.00;;;;;;;;;;5014805;28;20367;-82
2024/01/18 15:58:57;;;;;;;0.00;0.00;;;;;;;;;;4998079;28;20033;-82
2024/01/18 16:01:23;;;;;;;0.00;0.00;;;;;;;;;;4998138;28;20025;-82
2024/01/18 16:03:48;;;;;;;0.00;0.00;;;;;;;;;;5014675;28;20105;-83
2024/01/18 16:06:14;;;;;;;0.00;0.00;;;;;;;;;;4998311;28;20476;-81
2024/01/18 16:08:41;;;;;;;0.00;0.00;;;;;;;;;;4998144;28;20395;-82
2024/01/18 16:11:06;;;;;;;0.00;0.00;;;;;;;;;;5015745;28;20032;-82
2024/01/18 16:13:32;;;;;;;0.00;0.00;;;;;;;;;;5014125;28;20120;-82
2024/01/18 16:15:57;;;;;;;0.00;0.00;;;;;;;;;;5014281;28;20029;-82
2024/01/18 16:18:24;;;;;;;0.00;0.00;;;;;;;;;;4997766;28;20033;-82
2024/01/18 16:20:49;;;;;;;0.00;0.00;;;;;;;;;;5014052;28;20065;-82
2024/01/18 16:23:16;;;;;;;0.00;0.00;;;;;;;;;;5015299;28;20052;-82
2024/01/18 16:25:43;;;;;;;0.00;0.00;;;;;;;;;;5015229;28;20443;-81
2024/01/18 16:28:08;;;;;;;0.00;0.00;;;;;;;;;;5013860;28;20026;-83
2024/01/18 16:30:34;;;;;;;0.00;0.00;;;;;;;;;;5014004;28;20304;-82
2024/01/18 16:32:59;;;;;;;0.00;0.00;;;;;;;;;;5013995;28;20029;-83
2024/01/18 16:35:29;;;;;;;0.00;0.00;;;;;;;;;;5015069;28;20042;-82